Cfl Performer — PHLY — position and weather

sailwx.info

Track history (hours):
 
Tides and Currents Weather Stations Pressure Air Temp Water Temp Dewpoint Dewpoint Depression Visibility Wind Speed Wind Dir Waves Ship Positions

Cfl Performer

Last reported at 2015-Sep-04 01:32 UTC. Time now 2015-Sep-04 10:27 UTC.
Position N 38°01' W 009°54'.

Length 117 m; draft 6.4 m.

Type: Cargo ship. MMSI: 244989000.

Date/timePositionNaut miles runAvg speedWind from/ knotsBaromVisibWave heightAir tempDewpointWater temp
2015-Sep-04 01:32N 38°01' W 009°54'8 8.4
2015-Sep-04 00:33N 38°07' W 009°48'8 7.9
2015-Sep-03 23:34N 38°14' W 009°43'8 8.2
2015-Sep-03 22:33N 38°21' W 009°37'8 8.1
2015-Sep-03 21:33N 38°28' W 009°32'8 8.1
2015-Sep-03 20:33N 38°34' W 009°25'9 9.0
2015-Sep-03 19:33N 38°41' W 009°17'8 8.1
2015-Sep-03 18:33N 38°43' W 009°07'2 1.9
2015-Sep-03 17:32N 38°44' W 009°06'0 0.0
2015-Sep-03 16:32N 38°44' W 009°06'0 0.0
2015-Sep-03 15:32N 38°44' W 009°06'0 0.0
2015-Sep-03 14:32N 38°44' W 009°06'0 0.0
2015-Sep-03 13:32N 38°44' W 009°06'0 0.0
2015-Sep-03 12:32N 38°44' W 009°06'0 0.0
2015-Sep-03 11:32N 38°44' W 009°06'0 0.0
2015-Sep-03 10:32N 38°44' W 009°06'0 0.0
2015-Sep-03 09:32N 38°44' W 009°06'0 0.0
2015-Sep-03 08:32N 38°44' W 009°06'0 0.0
2015-Sep-03 07:32N 38°44' W 009°06'0 0.0
2015-Sep-03 06:32N 38°44' W 009°06'0 0.0
2015-Sep-03 05:32N 38°44' W 009°06'0 0.0
2015-Sep-03 04:32N 38°44' W 009°06'0 0.0
2015-Sep-03 03:32N 38°44' W 009°06'0 0.0
2015-Sep-03 02:32N 38°44' W 009°06'0 0.0
2015-Sep-03 01:32N 38°44' W 009°06'0 0.0
2015-Sep-03 00:32N 38°44' W 009°06'0 0.0
2015-Sep-02 23:32N 38°44' W 009°06'0 0.0
2015-Sep-02 22:32N 38°44' W 009°06'0 0.0
2015-Sep-02 21:32N 38°44' W 009°06'0 0.0
2015-Sep-02 20:32N 38°44' W 009°06'0 0.0
2015-Sep-02 19:32N 38°44' W 009°06'0 0.0
2015-Sep-02 18:32N 38°44' W 009°06'0 0.0
2015-Sep-02 17:29N 38°44' W 009°06'0 0.0
2015-Sep-02 16:32N 38°44' W 009°06'0 0.0
2015-Sep-02 15:32N 38°44' W 009°06'0 0.0
2015-Sep-02 14:32N 38°44' W 009°06'0 0.0
2015-Sep-02 13:33N 38°44' W 009°06'0 0.0
2015-Sep-02 12:33N 38°44' W 009°06'0 0.0
2015-Sep-02 11:34N 38°44' W 009°06'0 0.0
2015-Sep-02 10:33N 38°44' W 009°06'0 0.0
2015-Sep-02 09:33N 38°44' W 009°06'0 0.0
2015-Sep-02 08:33N 38°44' W 009°06'0 0.0
2015-Sep-02 07:33N 38°44' W 009°06'0 0.0
2015-Sep-02 06:33N 38°44' W 009°06'0 0.0
2015-Sep-02 05:33N 38°44' W 009°06'0 0.0
2015-Sep-02 04:33N 38°44' W 009°06'0 0.0
2015-Sep-02 03:33N 38°44' W 009°06'0 0.0
2015-Sep-02 02:33N 38°44' W 009°06'0 0.0
2015-Sep-02 01:33N 38°44' W 009°06'0 0.0
2015-Sep-02 00:33N 38°44' W 009°06'0 0.0
2015-Sep-01 23:33N 38°44' W 009°06'0 0.0
2015-Sep-01 22:33N 38°44' W 009°06'0 0.2
2015-Sep-01 21:33N 38°44' W 009°06'6 6.1
2015-Sep-01 20:33N 38°41' W 009°13'3 3.3
2015-Sep-01 19:33N 38°41' W 009°17'6 6.4
2015-Sep-01 18:33N 38°37' W 009°23'3 3.3
2015-Sep-01 17:31N 38°40' W 009°24'0 0.0
2015-Sep-01 16:31N 38°40' W 009°24'0 0.0
2015-Sep-01 15:31N 38°40' W 009°24'0 0.0
2015-Sep-01 14:31N 38°40' W 009°24'0 0.0
2015-Sep-01 13:31N 38°40' W 009°24'0 0.0
2015-Sep-01 12:31N 38°40' W 009°24'0 0.0
2015-Sep-01 11:31N 38°40' W 009°24'0 0.0
2015-Sep-01 10:31N 38°40' W 009°24'0 0.0
2015-Sep-01 09:31N 38°40' W 009°24'0 0.0
2015-Sep-01 08:31N 38°40' W 009°24'0 0.0
2015-Sep-01 07:31N 38°41' W 009°24'0 0.0
2015-Sep-01 06:31N 38°41' W 009°24'0 0.1
2015-Sep-01 05:31N 38°41' W 009°24'0 0.0
2015-Sep-01 04:31N 38°41' W 009°24'0 0.1
2015-Sep-01 03:31N 38°41' W 009°24'0 0.0
2015-Sep-01 02:31N 38°41' W 009°24'0 0.0
2015-Sep-01 01:31N 38°41' W 009°24'0 0.0
2015-Sep-01 00:31N 38°41' W 009°24'0 0.0
2015-Aug-31 23:31N 38°41' W 009°24'0 0.0
2015-Aug-31 22:28N 38°41' W 009°24'0 0.0
2015-Aug-31 21:31N 38°41' W 009°24'0 0.0
2015-Aug-31 20:31N 38°41' W 009°24'0 0.0
2015-Aug-31 19:31N 38°41' W 009°24'0 0.0
2015-Aug-31 18:31N 38°41' W 009°24'0 0.0
2015-Aug-31 17:31N 38°41' W 009°24'0 0.0
2015-Aug-31 16:28N 38°41' W 009°24'0 0.0
2015-Aug-31 15:31N 38°41' W 009°24'0 0.0
2015-Aug-31 14:31N 38°41' W 009°24'0 0.0
2015-Aug-31 13:31N 38°41' W 009°24'0 0.0
2015-Aug-31 12:31N 38°41' W 009°24'0 0.0
2015-Aug-31 11:31N 38°41' W 009°24'0 0.0
2015-Aug-31 10:31N 38°41' W 009°24'0 0.0
2015-Aug-31 09:31N 38°41' W 009°24'0 0.0
2015-Aug-31 08:31N 38°41' W 009°24'0 0.0
2015-Aug-31 07:31N 38°41' W 009°24'0 0.0
2015-Aug-31 06:31N 38°41' W 009°24'0 0.0
2015-Aug-31 05:31N 38°41' W 009°24'0 0.0
2015-Aug-31 04:31N 38°41' W 009°24'0 0.0
2015-Aug-31 03:31N 38°41' W 009°24'0 0.0
2015-Aug-31 02:31N 38°41' W 009°24'0 0.0
2015-Aug-31 01:31N 38°41' W 009°24'0 0.0
2015-Aug-31 00:31N 38°41' W 009°24'0 0.0
2015-Aug-30 23:31N 38°41' W 009°24'0 0.0
2015-Aug-30 22:31N 38°41' W 009°24'0 0.0
2015-Aug-30 21:31N 38°41' W 009°24'0 0.0
2015-Aug-30 20:28N 38°41' W 009°24'0 0.0
2015-Aug-30 19:31N 38°41' W 009°24'0 0.0
2015-Aug-30 18:31N 38°41' W 009°24'0 0.0
2015-Aug-30 17:28N 38°41' W 009°24'0 0.0
2015-Aug-30 16:31N 38°41' W 009°24'0 0.0
2015-Aug-30 15:31N 38°41' W 009°24'0 0.0
2015-Aug-30 14:31N 38°41' W 009°24'0 0.0
2015-Aug-30 13:31N 38°41' W 009°24'0 0.0
2015-Aug-30 12:31N 38°41' W 009°24'0 0.0
2015-Aug-30 11:31N 38°41' W 009°24'0 0.0
2015-Aug-30 10:31N 38°41' W 009°24'0 0.0
2015-Aug-30 09:31N 38°41' W 009°24'0 0.0
2015-Aug-30 08:31N 38°41' W 009°24'0 0.0
2015-Aug-30 07:31N 38°41' W 009°24'0 0.0
2015-Aug-30 06:31N 38°41' W 009°24'0 0.0
2015-Aug-30 05:31N 38°41' W 009°24'0 0.0
2015-Aug-30 04:31N 38°41' W 009°24'0 0.1
2015-Aug-30 03:31N 38°41' W 009°24'0 0.0
2015-Aug-30 02:31N 38°41' W 009°24'0 0.0
2015-Aug-30 01:31N 38°41' W 009°24'0 0.0
2015-Aug-30 00:31N 38°41' W 009°24'0 0.0
2015-Aug-29 23:28N 38°41' W 009°24'0 0.0
2015-Aug-29 22:28N 38°41' W 009°24'0 0.0
2015-Aug-29 21:31N 38°41' W 009°24'0 0.0
2015-Aug-29 20:31N 38°41' W 009°24'0 0.0
2015-Aug-29 19:28N 38°41' W 009°24'0 0.0
2015-Aug-29 18:31N 38°41' W 009°24'0 0.0
2015-Aug-29 17:31N 38°41' W 009°24'0 0.0
2015-Aug-29 16:31N 38°41' W 009°24'0 0.0
2015-Aug-29 15:31N 38°41' W 009°24'0 0.0
2015-Aug-29 14:31N 38°41' W 009°24'0 0.0
2015-Aug-29 13:31N 38°41' W 009°24'0 0.0
2015-Aug-29 12:31N 38°41' W 009°24'0 0.0
2015-Aug-29 11:31N 38°41' W 009°24'0 0.0
2015-Aug-29 10:31N 38°41' W 009°24'0 0.0
2015-Aug-29 09:31N 38°41' W 009°24'0 0.0
2015-Aug-29 08:31N 38°41' W 009°24'0 0.0
2015-Aug-29 07:31N 38°41' W 009°24'0 0.1
2015-Aug-29 06:31N 38°41' W 009°24'0 0.1
2015-Aug-29 05:31N 38°40' W 009°24'0 0.1
2015-Aug-29 04:31N 38°41' W 009°24'0 0.0
2015-Aug-29 03:31N 38°41' W 009°24'0 0.0
2015-Aug-29 02:28N 38°41' W 009°24'0 0.0
2015-Aug-29 01:31N 38°41' W 009°24'0 0.0
2015-Aug-29 00:31N 38°41' W 009°24'0 0.0
2015-Aug-28 23:31N 38°41' W 009°24'0 0.0
2015-Aug-28 22:31N 38°41' W 009°24'0 0.0
2015-Aug-28 21:31N 38°41' W 009°24'0 0.0
2015-Aug-28 20:31N 38°41' W 009°24'0 0.0
2015-Aug-28 19:31N 38°41' W 009°24'0 0.0
2015-Aug-28 18:31N 38°41' W 009°24'0 0.0
2015-Aug-28 17:31N 38°41' W 009°24'0 0.0
2015-Aug-28 16:31N 38°41' W 009°24'0 0.0
2015-Aug-28 15:31N 38°41' W 009°24'0 0.0
2015-Aug-28 14:31N 38°41' W 009°24'0 0.0
2015-Aug-28 13:31N 38°41' W 009°24'0 0.0
2015-Aug-28 12:31N 38°41' W 009°24'0 0.0
2015-Aug-28 11:31N 38°41' W 009°24'0 0.0
2015-Aug-28 10:31N 38°41' W 009°24'0 0.0
2015-Aug-28 09:31N 38°41' W 009°24'0 0.0
2015-Aug-28 08:31N 38°41' W 009°24'0 0.0
2015-Aug-28 07:31N 38°41' W 009°24'0 0.0
2015-Aug-28 06:31N 38°41' W 009°24'0 0.0
2015-Aug-28 05:31N 38°41' W 009°24'0 0.0
2015-Aug-28 04:31N 38°41' W 009°24'0 0.0
2015-Aug-28 03:31N 38°41' W 009°24'0 0.0
2015-Aug-28 02:31N 38°41' W 009°24'0 0.0
2015-Aug-28 01:31N 38°41' W 009°24'0 0.0
2015-Aug-28 00:31N 38°41' W 009°24'0 0.0
2015-Aug-27 23:31N 38°41' W 009°24'0 0.0
2015-Aug-27 22:31N 38°41' W 009°24'0 0.0
2015-Aug-27 21:28N 38°41' W 009°24'0 0.0
2015-Aug-27 20:31N 38°41' W 009°24'0 0.0
2015-Aug-27 19:28N 38°41' W 009°24'0 0.0
2015-Aug-27 18:31N 38°41' W 009°24'0 0.0
2015-Aug-27 17:31N 38°41' W 009°24'0 0.0
2015-Aug-27 16:31N 38°41' W 009°24'0 0.0
2015-Aug-27 15:31N 38°41' W 009°24'0 0.0
2015-Aug-27 14:31N 38°41' W 009°24'0 0.0
2015-Aug-27 13:31N 38°41' W 009°24'0 0.0
2015-Aug-27 12:31N 38°41' W 009°24'0 0.0
2015-Aug-27 11:31N 38°41' W 009°24'0 0.0
2015-Aug-27 10:31N 38°41' W 009°24'0 0.0
2015-Aug-27 09:31N 38°41' W 009°24'0 0.0
2015-Aug-27 08:31N 38°41' W 009°24'0 0.0
2015-Aug-27 07:31N 38°41' W 009°24'0 0.0
2015-Aug-27 06:31N 38°41' W 009°24'0 0.0
2015-Aug-27 05:31N 38°41' W 009°24'0 0.0
2015-Aug-27 04:28N 38°41' W 009°24'0 0.0
2015-Aug-27 03:31N 38°41' W 009°24'0 0.1
2015-Aug-27 02:31N 38°41' W 009°24'0 0.0
2015-Aug-27 01:31N 38°41' W 009°24'0 0.0
2015-Aug-27 00:31N 38°41' W 009°24'0 0.0
2015-Aug-26 23:31N 38°41' W 009°24'0 0.0
2015-Aug-26 22:31N 38°41' W 009°24'0 0.0
2015-Aug-26 21:31N 38°41' W 009°24'0 0.1
2015-Aug-26 20:31N 38°41' W 009°24'3 3.5
2015-Aug-26 19:33N 38°39' W 009°20'9 9.4
2015-Aug-26 18:33N 38°42' W 009°09'3 2.7
2015-Aug-26 17:23N 38°44' W 009°06'0 0.0
2015-Aug-26 16:29N 38°44' W 009°06'0 0.0
2015-Aug-26 15:32N 38°44' W 009°06'0 0.0
2015-Aug-26 14:32N 38°44' W 009°06'0 0.0
2015-Aug-26 13:29N 38°44' W 009°06'0 0.0
2015-Aug-26 12:32N 38°44' W 009°06'0 0.0
2015-Aug-26 11:29N 38°44' W 009°06'0 0.0
2015-Aug-26 10:32N 38°44' W 009°06'0 0.0
2015-Aug-26 09:23N 38°44' W 009°06'0 0.0
2015-Aug-26 08:32N 38°44' W 009°06'0 0.0
2015-Aug-26 07:32N 38°44' W 009°06'0 0.0
2015-Aug-26 06:26N 38°44' W 009°06'0 0.0
2015-Aug-26 05:29N 38°44' W 009°06'0 0.0
2015-Aug-26 04:32N 38°44' W 009°06'0 0.0
2015-Aug-26 03:32N 38°44' W 009°06'0 0.0
2015-Aug-26 02:32N 38°44' W 009°06'0 0.0
2015-Aug-26 01:33N 38°44' W 009°06'7 7.1
2015-Aug-26 00:33N 38°41' W 009°14'8 8.1
2015-Aug-25 23:33N 38°37' W 009°24'3 3.2
2015-Aug-25 22:30N 38°41' W 009°24'0 0.0
2015-Aug-25 21:33N 38°41' W 009°24'0 0.0
2015-Aug-25 20:30N 38°41' W 009°24'0 0.0
2015-Aug-25 19:33N 38°41' W 009°24'0 0.0
2015-Aug-25 18:33N 38°41' W 009°24'0 0.0
2015-Aug-25 17:33N 38°41' W 009°24'0 0.0
2015-Aug-25 16:33N 38°41' W 009°24'0 0.0
2015-Aug-25 15:33N 38°41' W 009°24'0 0.0
2015-Aug-25 14:30N 38°41' W 009°24'0 0.0
2015-Aug-25 13:33N 38°41' W 009°24'0 0.0
2015-Aug-25 12:33N 38°41' W 009°24'0 0.0
2015-Aug-25 11:33N 38°41' W 009°24'0 0.0
2015-Aug-25 10:33N 38°41' W 009°24'0 0.0
2015-Aug-25 09:33N 38°41' W 009°24'0 0.0
2015-Aug-25 08:33N 38°41' W 009°24'0 0.0
2015-Aug-25 07:33N 38°41' W 009°24'0 0.0
2015-Aug-25 06:33N 38°41' W 009°24'0 0.0
2015-Aug-25 05:33N 38°41' W 009°24'0 0.0
2015-Aug-25 04:33N 38°41' W 009°24'0 0.0
2015-Aug-25 03:33N 38°41' W 009°24'0 0.0
2015-Aug-25 02:33N 38°41' W 009°24'0 0.0
2015-Aug-25 01:33N 38°41' W 009°24'  
Track history (hours):
 
Tides and Currents Weather Stations Pressure Air Temp Water Temp Dewpoint Dewpoint Depression Visibility Wind Speed Wind Dir Waves Ship Positions

Cfl Performer

Last reported at 2015-Sep-04 01:32 UTC. Time now 2015-Sep-04 10:27 UTC.
Position N 38°01' W 009°54'.

Length 117 m; draft 6.4 m.

Type: Cargo ship. MMSI: 244989000.

Date/timePositionNaut miles runAvg speedWind from/ knotsBaromVisibWave heightAir tempDewpointWater temp
2015-Sep-04 01:32N 38°01' W 009°54'8 8.4
2015-Sep-04 00:33N 38°07' W 009°48'8 7.9
2015-Sep-03 23:34N 38°14' W 009°43'8 8.2
2015-Sep-03 22:33N 38°21' W 009°37'8 8.1
2015-Sep-03 21:33N 38°28' W 009°32'8 8.1
2015-Sep-03 20:33N 38°34' W 009°25'9 9.0
2015-Sep-03 19:33N 38°41' W 009°17'8 8.1
2015-Sep-03 18:33N 38°43' W 009°07'2 1.9
2015-Sep-03 17:32N 38°44' W 009°06'0 0.0
2015-Sep-03 16:32N 38°44' W 009°06'0 0.0
2015-Sep-03 15:32N 38°44' W 009°06'0 0.0
2015-Sep-03 14:32N 38°44' W 009°06'0 0.0
2015-Sep-03 13:32N 38°44' W 009°06'0 0.0
2015-Sep-03 12:32N 38°44' W 009°06'0 0.0
2015-Sep-03 11:32N 38°44' W 009°06'0 0.0
2015-Sep-03 10:32N 38°44' W 009°06'0 0.0
2015-Sep-03 09:32N 38°44' W 009°06'0 0.0
2015-Sep-03 08:32N 38°44' W 009°06'0 0.0
2015-Sep-03 07:32N 38°44' W 009°06'0 0.0
2015-Sep-03 06:32N 38°44' W 009°06'0 0.0
2015-Sep-03 05:32N 38°44' W 009°06'0 0.0
2015-Sep-03 04:32N 38°44' W 009°06'0 0.0
2015-Sep-03 03:32N 38°44' W 009°06'0 0.0
2015-Sep-03 02:32N 38°44' W 009°06'0 0.0
2015-Sep-03 01:32N 38°44' W 009°06'0 0.0
2015-Sep-03 00:32N 38°44' W 009°06'0 0.0
2015-Sep-02 23:32N 38°44' W 009°06'0 0.0
2015-Sep-02 22:32N 38°44' W 009°06'0 0.0
2015-Sep-02 21:32N 38°44' W 009°06'0 0.0
2015-Sep-02 20:32N 38°44' W 009°06'0 0.0
2015-Sep-02 19:32N 38°44' W 009°06'0 0.0
2015-Sep-02 18:32N 38°44' W 009°06'0 0.0
2015-Sep-02 17:29N 38°44' W 009°06'0 0.0
2015-Sep-02 16:32N 38°44' W 009°06'0 0.0
2015-Sep-02 15:32N 38°44' W 009°06'0 0.0
2015-Sep-02 14:32N 38°44' W 009°06'0 0.0
2015-Sep-02 13:33N 38°44' W 009°06'0 0.0
2015-Sep-02 12:33N 38°44' W 009°06'0 0.0
2015-Sep-02 11:34N 38°44' W 009°06'0 0.0
2015-Sep-02 10:33N 38°44' W 009°06'0 0.0
2015-Sep-02 09:33N 38°44' W 009°06'0 0.0
2015-Sep-02 08:33N 38°44' W 009°06'0 0.0
2015-Sep-02 07:33N 38°44' W 009°06'0 0.0
2015-Sep-02 06:33N 38°44' W 009°06'0 0.0
2015-Sep-02 05:33N 38°44' W 009°06'0 0.0
2015-Sep-02 04:33N 38°44' W 009°06'0 0.0
2015-Sep-02 03:33N 38°44' W 009°06'0 0.0
2015-Sep-02 02:33N 38°44' W 009°06'0 0.0
2015-Sep-02 01:33N 38°44' W 009°06'0 0.0
2015-Sep-02 00:33N 38°44' W 009°06'0 0.0
2015-Sep-01 23:33N 38°44' W 009°06'0 0.0
2015-Sep-01 22:33N 38°44' W 009°06'0 0.2
2015-Sep-01 21:33N 38°44' W 009°06'6 6.1
2015-Sep-01 20:33N 38°41' W 009°13'3 3.3
2015-Sep-01 19:33N 38°41' W 009°17'6 6.4
2015-Sep-01 18:33N 38°37' W 009°23'3 3.3
2015-Sep-01 17:31N 38°40' W 009°24'0 0.0
2015-Sep-01 16:31N 38°40' W 009°24'0 0.0
2015-Sep-01 15:31N 38°40' W 009°24'0 0.0
2015-Sep-01 14:31N 38°40' W 009°24'0 0.0
2015-Sep-01 13:31N 38°40' W 009°24'0 0.0
2015-Sep-01 12:31N 38°40' W 009°24'0 0.0
2015-Sep-01 11:31N 38°40' W 009°24'0 0.0
2015-Sep-01 10:31N 38°40' W 009°24'0 0.0
2015-Sep-01 09:31N 38°40' W 009°24'0 0.0
2015-Sep-01 08:31N 38°40' W 009°24'0 0.0
2015-Sep-01 07:31N 38°41' W 009°24'0 0.0
2015-Sep-01 06:31N 38°41' W 009°24'0 0.1
2015-Sep-01 05:31N 38°41' W 009°24'0 0.0
2015-Sep-01 04:31N 38°41' W 009°24'0 0.1
2015-Sep-01 03:31N 38°41' W 009°24'0 0.0
2015-Sep-01 02:31N 38°41' W 009°24'0 0.0
2015-Sep-01 01:31N 38°41' W 009°24'0 0.0
2015-Sep-01 00:31N 38°41' W 009°24'0 0.0
2015-Aug-31 23:31N 38°41' W 009°24'0 0.0
2015-Aug-31 22:28N 38°41' W 009°24'0 0.0
2015-Aug-31 21:31N 38°41' W 009°24'0 0.0
2015-Aug-31 20:31N 38°41' W 009°24'0 0.0
2015-Aug-31 19:31N 38°41' W 009°24'0 0.0
2015-Aug-31 18:31N 38°41' W 009°24'0 0.0
2015-Aug-31 17:31N 38°41' W 009°24'0 0.0
2015-Aug-31 16:28N 38°41' W 009°24'0 0.0
2015-Aug-31 15:31N 38°41' W 009°24'0 0.0
2015-Aug-31 14:31N 38°41' W 009°24'0 0.0
2015-Aug-31 13:31N 38°41' W 009°24'0 0.0
2015-Aug-31 12:31N 38°41' W 009°24'0 0.0
2015-Aug-31 11:31N 38°41' W 009°24'0 0.0
2015-Aug-31 10:31N 38°41' W 009°24'0 0.0
2015-Aug-31 09:31N 38°41' W 009°24'0 0.0
2015-Aug-31 08:31N 38°41' W 009°24'0 0.0
2015-Aug-31 07:31N 38°41' W 009°24'0 0.0
2015-Aug-31 06:31N 38°41' W 009°24'0 0.0
2015-Aug-31 05:31N 38°41' W 009°24'0 0.0
2015-Aug-31 04:31N 38°41' W 009°24'0 0.0
2015-Aug-31 03:31N 38°41' W 009°24'0 0.0
2015-Aug-31 02:31N 38°41' W 009°24'0 0.0
2015-Aug-31 01:31N 38°41' W 009°24'0 0.0
2015-Aug-31 00:31N 38°41' W 009°24'0 0.0
2015-Aug-30 23:31N 38°41' W 009°24'0 0.0
2015-Aug-30 22:31N 38°41' W 009°24'0 0.0
2015-Aug-30 21:31N 38°41' W 009°24'0 0.0
2015-Aug-30 20:28N 38°41' W 009°24'0 0.0
2015-Aug-30 19:31N 38°41' W 009°24'0 0.0
2015-Aug-30 18:31N 38°41' W 009°24'0 0.0
2015-Aug-30 17:28N 38°41' W 009°24'0 0.0
2015-Aug-30 16:31N 38°41' W 009°24'0 0.0
2015-Aug-30 15:31N 38°41' W 009°24'0 0.0
2015-Aug-30 14:31N 38°41' W 009°24'0 0.0
2015-Aug-30 13:31N 38°41' W 009°24'0 0.0
2015-Aug-30 12:31N 38°41' W 009°24'0 0.0
2015-Aug-30 11:31N 38°41' W 009°24'0 0.0
2015-Aug-30 10:31N 38°41' W 009°24'0 0.0
2015-Aug-30 09:31N 38°41' W 009°24'0 0.0
2015-Aug-30 08:31N 38°41' W 009°24'0 0.0
2015-Aug-30 07:31N 38°41' W 009°24'0 0.0
2015-Aug-30 06:31N 38°41' W 009°24'0 0.0
2015-Aug-30 05:31N 38°41' W 009°24'0 0.0
2015-Aug-30 04:31N 38°41' W 009°24'0 0.1
2015-Aug-30 03:31N 38°41' W 009°24'0 0.0
2015-Aug-30 02:31N 38°41' W 009°24'0 0.0
2015-Aug-30 01:31N 38°41' W 009°24'0 0.0
2015-Aug-30 00:31N 38°41' W 009°24'0 0.0
2015-Aug-29 23:28N 38°41' W 009°24'0 0.0
2015-Aug-29 22:28N 38°41' W 009°24'0 0.0
2015-Aug-29 21:31N 38°41' W 009°24'0 0.0
2015-Aug-29 20:31N 38°41' W 009°24'0 0.0
2015-Aug-29 19:28N 38°41' W 009°24'0 0.0
2015-Aug-29 18:31N 38°41' W 009°24'0 0.0
2015-Aug-29 17:31N 38°41' W 009°24'0 0.0
2015-Aug-29 16:31N 38°41' W 009°24'0 0.0
2015-Aug-29 15:31N 38°41' W 009°24'0 0.0
2015-Aug-29 14:31N 38°41' W 009°24'0 0.0
2015-Aug-29 13:31N 38°41' W 009°24'0 0.0
2015-Aug-29 12:31N 38°41' W 009°24'0 0.0
2015-Aug-29 11:31N 38°41' W 009°24'0 0.0
2015-Aug-29 10:31N 38°41' W 009°24'0 0.0
2015-Aug-29 09:31N 38°41' W 009°24'0 0.0
2015-Aug-29 08:31N 38°41' W 009°24'0 0.0
2015-Aug-29 07:31N 38°41' W 009°24'0 0.1
2015-Aug-29 06:31N 38°41' W 009°24'0 0.1
2015-Aug-29 05:31N 38°40' W 009°24'0 0.1
2015-Aug-29 04:31N 38°41' W 009°24'0 0.0
2015-Aug-29 03:31N 38°41' W 009°24'0 0.0
2015-Aug-29 02:28N 38°41' W 009°24'0 0.0
2015-Aug-29 01:31N 38°41' W 009°24'0 0.0
2015-Aug-29 00:31N 38°41' W 009°24'0 0.0
2015-Aug-28 23:31N 38°41' W 009°24'0 0.0
2015-Aug-28 22:31N 38°41' W 009°24'0 0.0
2015-Aug-28 21:31N 38°41' W 009°24'0 0.0
2015-Aug-28 20:31N 38°41' W 009°24'0 0.0
2015-Aug-28 19:31N 38°41' W 009°24'0 0.0
2015-Aug-28 18:31N 38°41' W 009°24'0 0.0
2015-Aug-28 17:31N 38°41' W 009°24'0 0.0
2015-Aug-28 16:31N 38°41' W 009°24'0 0.0
2015-Aug-28 15:31N 38°41' W 009°24'0 0.0
2015-Aug-28 14:31N 38°41' W 009°24'0 0.0
2015-Aug-28 13:31N 38°41' W 009°24'0 0.0
2015-Aug-28 12:31N 38°41' W 009°24'0 0.0
2015-Aug-28 11:31N 38°41' W 009°24'0 0.0
2015-Aug-28 10:31N 38°41' W 009°24'0 0.0
2015-Aug-28 09:31N 38°41' W 009°24'0 0.0
2015-Aug-28 08:31N 38°41' W 009°24'0 0.0
2015-Aug-28 07:31N 38°41' W 009°24'0 0.0
2015-Aug-28 06:31N 38°41' W 009°24'0 0.0
2015-Aug-28 05:31N 38°41' W 009°24'0 0.0
2015-Aug-28 04:31N 38°41' W 009°24'0 0.0
2015-Aug-28 03:31N 38°41' W 009°24'0 0.0
2015-Aug-28 02:31N 38°41' W 009°24'0 0.0
2015-Aug-28 01:31N 38°41' W 009°24'0 0.0
2015-Aug-28 00:31N 38°41' W 009°24'0 0.0
2015-Aug-27 23:31N 38°41' W 009°24'0 0.0
2015-Aug-27 22:31N 38°41' W 009°24'0 0.0
2015-Aug-27 21:28N 38°41' W 009°24'0 0.0
2015-Aug-27 20:31N 38°41' W 009°24'0 0.0
2015-Aug-27 19:28N 38°41' W 009°24'0 0.0
2015-Aug-27 18:31N 38°41' W 009°24'0 0.0
2015-Aug-27 17:31N 38°41' W 009°24'0 0.0
2015-Aug-27 16:31N 38°41' W 009°24'0 0.0
2015-Aug-27 15:31N 38°41' W 009°24'0 0.0
2015-Aug-27 14:31N 38°41' W 009°24'0 0.0
2015-Aug-27 13:31N 38°41' W 009°24'0 0.0
2015-Aug-27 12:31N 38°41' W 009°24'0 0.0
2015-Aug-27 11:31N 38°41' W 009°24'0 0.0
2015-Aug-27 10:31N 38°41' W 009°24'0 0.0
2015-Aug-27 09:31N 38°41' W 009°24'0 0.0
2015-Aug-27 08:31N 38°41' W 009°24'0 0.0
2015-Aug-27 07:31N 38°41' W 009°24'0 0.0
2015-Aug-27 06:31N 38°41' W 009°24'0 0.0
2015-Aug-27 05:31N 38°41' W 009°24'0 0.0
2015-Aug-27 04:28N 38°41' W 009°24'0 0.0
2015-Aug-27 03:31N 38°41' W 009°24'0 0.1
2015-Aug-27 02:31N 38°41' W 009°24'0 0.0
2015-Aug-27 01:31N 38°41' W 009°24'0 0.0
2015-Aug-27 00:31N 38°41' W 009°24'0 0.0
2015-Aug-26 23:31N 38°41' W 009°24'0 0.0
2015-Aug-26 22:31N 38°41' W 009°24'0 0.0
2015-Aug-26 21:31N 38°41' W 009°24'0 0.1
2015-Aug-26 20:31N 38°41' W 009°24'3 3.5
2015-Aug-26 19:33N 38°39' W 009°20'9 9.4
2015-Aug-26 18:33N 38°42' W 009°09'3 2.7
2015-Aug-26 17:23N 38°44' W 009°06'0 0.0
2015-Aug-26 16:29N 38°44' W 009°06'0 0.0
2015-Aug-26 15:32N 38°44' W 009°06'0 0.0
2015-Aug-26 14:32N 38°44' W 009°06'0 0.0
2015-Aug-26 13:29N 38°44' W 009°06'0 0.0
2015-Aug-26 12:32N 38°44' W 009°06'0 0.0
2015-Aug-26 11:29N 38°44' W 009°06'0 0.0
2015-Aug-26 10:32N 38°44' W 009°06'0 0.0
2015-Aug-26 09:23N 38°44' W 009°06'0 0.0
2015-Aug-26 08:32N 38°44' W 009°06'0 0.0
2015-Aug-26 07:32N 38°44' W 009°06'0 0.0
2015-Aug-26 06:26N 38°44' W 009°06'0 0.0
2015-Aug-26 05:29N 38°44' W 009°06'0 0.0
2015-Aug-26 04:32N 38°44' W 009°06'0 0.0
2015-Aug-26 03:32N 38°44' W 009°06'0 0.0
2015-Aug-26 02:32N 38°44' W 009°06'0 0.0
2015-Aug-26 01:33N 38°44' W 009°06'7 7.1
2015-Aug-26 00:33N 38°41' W 009°14'8 8.1
2015-Aug-25 23:33N 38°37' W 009°24'3 3.2
2015-Aug-25 22:30N 38°41' W 009°24'0 0.0
2015-Aug-25 21:33N 38°41' W 009°24'0 0.0
2015-Aug-25 20:30N 38°41' W 009°24'0 0.0
2015-Aug-25 19:33N 38°41' W 009°24'0 0.0
2015-Aug-25 18:33N 38°41' W 009°24'0 0.0
2015-Aug-25 17:33N 38°41' W 009°24'0 0.0
2015-Aug-25 16:33N 38°41' W 009°24'0 0.0
2015-Aug-25 15:33N 38°41' W 009°24'0 0.0
2015-Aug-25 14:30N 38°41' W 009°24'0 0.0
2015-Aug-25 13:33N 38°41' W 009°24'0 0.0
2015-Aug-25 12:33N 38°41' W 009°24'0 0.0
2015-Aug-25 11:33N 38°41' W 009°24'0 0.0
2015-Aug-25 10:33N 38°41' W 009°24'0 0.0
2015-Aug-25 09:33N 38°41' W 009°24'0 0.0
2015-Aug-25 08:33N 38°41' W 009°24'0 0.0
2015-Aug-25 07:33N 38°41' W 009°24'0 0.0
2015-Aug-25 06:33N 38°41' W 009°24'0 0.0
2015-Aug-25 05:33N 38°41' W 009°24'0 0.0
2015-Aug-25 04:33N 38°41' W 009°24'0 0.0
2015-Aug-25 03:33N 38°41' W 009°24'0 0.0
2015-Aug-25 02:33N 38°41' W 009°24'0 0.0
2015-Aug-25 01:33N 38°41' W 009°24'  

Dump ship's entire track history